Wednesday, May 04, 2016
21:12 UTC
  |  Log In   |  Register Free
Airport Search:

Hobart Regional Airport
(KHBR)

Hobart Regional Airport Diagram
No Airport Diagram Available

FAA data valid effective Mar 31 2016 - May 26 2016 (unless otherwise noted).

 
 
 
 
 
 
 
 
 
 
 
 
 
 
Current Aviation Weather for KHBR

Weather Summary


The most recent METAR observation for HBR was updated at: 12:53 UTC
METAR for KHBR is not available. Closest METAR is for KCSM
KHBR  (most recent observation was updatred at 42:05 UTC)
042053Z AUTO 36011G15KT 10SM CLR 28/07 A3005 RMK AO2 SLP165 T02780072 56015

KCSM  (22.2 nm SE)   (most recent observation was updated at 42:05 UTC)
042053Z 01006G16KT 10SM CLR 28/06 A3007 RMK AO2 SLP168 T02780061 56014

KAXS  (22.5 nm NE)   (most recent observation was updated at 42:05 UTC)
042055Z AUTO 01009G14KT 10SM CLR 29/05 A3006 RMK AO2 T02900046

TAF for KHBR is not available.
KHBR
041728Z 0418/0518 35012G18KT P6SM SKC FM050000 05005KT P6SM SKC FM051500 16005KT P6SM SKC

KCSM  (22.2 nm SE)   (most recent observation was updatred at 41:72 UTC)
041728Z 0418/0518 35012G18KT P6SM SKC FM050000 05005KT P6SM SKC FM051500 17005KT P6SM SKC


KLTS  (23.1 nm NE)   (most recent observation was updatred at 41:90 UTC)
AMD 041905Z 0419/0523 34010G15KT 9999 SKC QNH3004INS BECMG 0500/0501 VRB06KT 9999 SKC QNH3007INS BECMG 0515/0516 14009KT 9999 SKC QNH3008INS TX28/0421Z TN09/0512Z AMD 041905
GlobalAir.com is loading additional information.
 Current Weather at HBR
82.0 F° (27.8 C°)

North winds at 13.8 mph
Pressure:
30.06 in
Humidity:
26%
Wind:
North at 13.8 mph
Dew Point:
44.1 F° (6.7 C°)
Visibility:
10.00 mi
HBR NOAA Radar




Find All Airport Services Find A Hotel Find A Rental Car Find A Golf Course Find A Restaurant $100 Hamburger



Airport Weather Forecast for KHBR

Translated METAR for KHBR (2053 UTC)
METAR:
KHBR 042053Z AUTO 36011G15KT 10SM CLR 28/07 A3005 RMK AO2 SLP165 T02780072 56015
Conditions at:
KHBR (Hobart Rgnl, OK) observed 2053 UTC 04 May 2016
Temperature:
28°C (82.4°F)
Dewpoint:
7°C (44.6°F) [RH = 26.5]
Pressure:
30.05 inches Hg (1017.6 mb)
pressure at sea level is 165 in Hg
Winds:
from the N (360 degrees) at 12.7 mph (11 knots: 5.7 m/s)
gusting to 17.3 mph (15 knots: 7.7 m/s)
Visibility:
10 mile(s)
Ceiling:
at least 12,000 feet AGL
Clouds:
Clear below 12,000 feet AGL
Remarks:
site is un-manned
site is automated and HAS a precipitation sensor

Translated TAF for KHBR (Hobart Rgnl, OK) (1728 UTC)
TAF text:
KHBR 041728Z 0418/0518 35012G18KT P6SM SKC
Forecast period:
Wednesday May 04 2016 18:00 UTC - Thursday May 05 2016 18:00 UTC
Forecast type:
FROM: standard forecast or significant change
Winds:
from the N (350 degrees) at 13.8 mph (12 knots: 6.2 m/s)
gusting to 20.7 mph (18 knots: 9.3 m/s)
Visibility:
6 or more mile(s) (9.7+ km)
Ceiling:
at least 12,000 feet AGL
Clouds:
Clear Skies
Weather:
no significant weather observed at this time
TAF text:
FM050000 05005KT P6SM SKC
Forecast period:
Thursday May 05 2016 00:00 UTC - Thursday May 05 2016 15:00 UTC
Forecast type:
FROM: standard forecast or significant change
Winds:
from the NE (050 degrees) at 5.8 mph (5 knots: 2.6 m/s)
Visibility:
6 or more mile(s) (9.7+ km)
Ceiling:
at least 12,000 feet AGL
Clouds:
Clear Skies
Weather:
no significant weather observed at this time
TAF text:
FM051500 16005KT P6SM SKC
Forecast period:
Thursday May 05 2016 15:00 UTC - Thursday May 05 2016 18:00 UTC
Forecast type:
FROM: standard forecast or significant change
Winds:
from the SSE (160 degrees) at 5.8 mph (5 knots: 2.6 m/s)
Visibility:
6 or more mile(s) (9.7+ km)
Ceiling:
at least 12,000 feet AGL
Clouds:
Clear Skies
Weather:
no significant weather observed at this time
FBO's on the Field
FBO Company Facility Photos Services Transportation Aviation Fuel Prices: Prices include tax
Catering Weather Repair Courtesy Rental Type 100LL JetA JetA+ MOGAS 8087
 
City of Hobart

Currently rated 5 by 1 person
FS:Phillips 66
Last Updated: Apr-15
Login to update fuel prices
SS:
Contact City of HobartMore FBO Information
 
Add another FBO Facility Photos Catering Weather Repair Courtesy Rental Type 100LL JetA JetA+ MOGAS 8087
Services Transportation Aviation Fuel Prices: Prices include tax


model-print
model-print
model-print
model-print